sensor_id;sensor_type;location;lat;lon;timestamp;pressure;altitude;pressure_sealevel;temperature;humidity
45071;BME280;30836;48.906;9.140;2023-03-01T00:00:18;994.21;;;9.79;34.09
45071;BME280;30836;48.906;9.140;2023-03-01T00:01:22;994.23;;;9.74;34.14
45071;BME280;30836;48.906;9.140;2023-03-01T00:02:24;994.23;;;9.72;34.12
45071;BME280;30836;48.906;9.140;2023-03-01T00:03:25;994.21;;;9.73;34.11
45071;BME280;30836;48.906;9.140;2023-03-01T00:04:25;994.21;;;9.74;34.06
45071;BME280;30836;48.906;9.140;2023-03-01T00:05:26;994.23;;;9.74;34.11
45071;BME280;30836;48.906;9.140;2023-03-01T00:06:27;994.19;;;9.72;34.13
45071;BME280;30836;48.906;9.140;2023-03-01T00:07:28;994.19;;;9.72;34.06
45071;BME280;30836;48.906;9.140;2023-03-01T00:08:28;994.17;;;9.69;34.13
45071;BME280;30836;48.906;9.140;2023-03-01T00:09:29;994.15;;;9.58;34.37
45071;BME280;30836;48.906;9.140;2023-03-01T00:10:29;994.17;;;9.43;34.67
45071;BME280;30836;48.906;9.140;2023-03-01T00:11:31;994.17;;;9.27;34.94
45071;BME280;30836;48.906;9.140;2023-03-01T00:12:33;994.17;;;9.14;35.15
45071;BME280;30836;48.906;9.140;2023-03-01T00:13:34;994.17;;;9.05;35.29
45071;BME280;30836;48.906;9.140;2023-03-01T00:14:35;994.19;;;8.97;35.40
45071;BME280;30836;48.906;9.140;2023-03-01T00:15:39;994.17;;;8.88;35.54
45071;BME280;30836;48.906;9.140;2023-03-01T00:16:40;994.21;;;8.80;35.71
45071;BME280;30836;48.906;9.140;2023-03-01T00:17:42;994.19;;;8.72;35.91
45071;BME280;30836;48.906;9.140;2023-03-01T00:18:43;994.19;;;8.65;36.01
45071;BME280;30836;48.906;9.140;2023-03-01T00:19:43;994.13;;;8.59;36.12
45071;BME280;30836;48.906;9.140;2023-03-01T00:21:53;994.13;;;8.52;36.33
45071;BME280;30836;48.906;9.140;2023-03-01T00:22:53;994.09;;;8.49;36.40
45071;BME280;30836;48.906;9.140;2023-03-01T00:23:54;994.09;;;8.47;36.39
45071;BME280;30836;48.906;9.140;2023-03-01T00:24:54;994.13;;;8.44;36.38
45071;BME280;30836;48.906;9.140;2023-03-01T00:25:55;994.13;;;8.41;36.42
45071;BME280;30836;48.906;9.140;2023-03-01T00:26:56;994.13;;;8.37;36.43
45071;BME280;30836;48.906;9.140;2023-03-01T00:27:56;994.11;;;8.34;36.49
45071;BME280;30836;48.906;9.140;2023-03-01T00:28:57;994.15;;;8.31;36.67
45071;BME280;30836;48.906;9.140;2023-03-01T00:29:58;994.15;;;8.24;37.08
45071;BME280;30836;48.906;9.140;2023-03-01T00:32:05;994.23;;;8.12;37.21
45071;BME280;30836;48.906;9.140;2023-03-01T00:33:06;994.21;;;8.08;37.28
45071;BME280;30836;48.906;9.140;2023-03-01T00:34:06;994.23;;;8.04;37.36
45071;BME280;30836;48.906;9.140;2023-03-01T00:35:07;994.23;;;7.99;37.48
45071;BME280;30836;48.906;9.140;2023-03-01T00:36:08;994.23;;;7.95;37.51
45071;BME280;30836;48.906;9.140;2023-03-01T00:37:09;994.27;;;7.91;37.58
45071;BME280;30836;48.906;9.140;2023-03-01T00:38:10;994.27;;;7.86;37.82
45071;BME280;30836;48.906;9.140;2023-03-01T00:39:12;994.27;;;7.82;37.97
45071;BME280;30836;48.906;9.140;2023-03-01T00:40:14;994.27;;;7.75;38.28
45071;BME280;30836;48.906;9.140;2023-03-01T00:41:16;994.29;;;7.63;38.47
45071;BME280;30836;48.906;9.140;2023-03-01T00:42:17;994.25;;;7.56;38.62
45071;BME280;30836;48.906;9.140;2023-03-01T00:43:18;994.30;;;7.56;38.49
45071;BME280;30836;48.906;9.140;2023-03-01T00:44:18;994.29;;;7.59;38.43
45071;BME280;30836;48.906;9.140;2023-03-01T00:45:19;994.27;;;7.63;38.34
45071;BME280;30836;48.906;9.140;2023-03-01T00:46:21;994.25;;;7.66;38.37
45071;BME280;30836;48.906;9.140;2023-03-01T00:47:28;994.25;;;7.67;38.40
45071;BME280;30836;48.906;9.140;2023-03-01T00:48:29;994.29;;;7.68;38.38
45071;BME280;30836;48.906;9.140;2023-03-01T00:49:29;994.27;;;7.70;38.31
45071;BME280;30836;48.906;9.140;2023-03-01T00:50:30;994.27;;;7.74;38.24
45071;BME280;30836;48.906;9.140;2023-03-01T00:51:31;994.25;;;7.78;38.14
45071;BME280;30836;48.906;9.140;2023-03-01T00:52:32;994.25;;;7.82;38.10
45071;BME280;30836;48.906;9.140;2023-03-01T00:53:33;994.21;;;7.86;38.06
45071;BME280;30836;48.906;9.140;2023-03-01T00:54:34;994.23;;;7.86;38.14
45071;BME280;30836;48.906;9.140;2023-03-01T00:55:35;994.21;;;7.82;38.11
45071;BME280;30836;48.906;9.140;2023-03-01T00:56:36;994.23;;;7.76;38.21
45071;BME280;30836;48.906;9.140;2023-03-01T00:57:37;994.19;;;7.69;38.36
45071;BME280;30836;48.906;9.140;2023-03-01T00:58:38;994.23;;;7.68;38.37
45071;BME280;30836;48.906;9.140;2023-03-01T00:59:39;994.19;;;7.70;38.31
45071;BME280;30836;48.906;9.140;2023-03-01T01:00:40;994.17;;;7.73;38.16
45071;BME280;30836;48.906;9.140;2023-03-01T01:01:40;994.17;;;7.77;38.11
45071;BME280;30836;48.906;9.140;2023-03-01T01:02:41;994.17;;;7.79;38.08
45071;BME280;30836;48.906;9.140;2023-03-01T01:03:45;994.19;;;7.80;38.13
45071;BME280;30836;48.906;9.140;2023-03-01T01:04:50;994.19;;;7.82;38.08
45071;BME280;30836;48.906;9.140;2023-03-01T01:05:51;994.19;;;7.86;37.98
45071;BME280;30836;48.906;9.140;2023-03-01T01:06:52;994.17;;;7.89;37.92
45071;BME280;30836;48.906;9.140;2023-03-01T01:07:53;994.17;;;7.90;37.93
45071;BME280;30836;48.906;9.140;2023-03-01T01:08:53;994.17;;;7.89;37.96
45071;BME280;30836;48.906;9.140;2023-03-01T01:09:55;994.17;;;7.89;37.99
45071;BME280;30836;48.906;9.140;2023-03-01T01:10:55;994.15;;;7.89;37.97
45071;BME280;30836;48.906;9.140;2023-03-01T01:11:56;994.17;;;7.89;37.92
45071;BME280;30836;48.906;9.140;2023-03-01T01:12:56;994.15;;;7.89;37.97
45071;BME280;30836;48.906;9.140;2023-03-01T01:13:57;994.17;;;7.88;38.03
45071;BME280;30836;48.906;9.140;2023-03-01T01:14:57;994.15;;;7.87;38.05
45071;BME280;30836;48.906;9.140;2023-03-01T01:16:02;994.17;;;7.86;38.05
45071;BME280;30836;48.906;9.140;2023-03-01T01:17:02;994.17;;;7.84;38.11
45071;BME280;30836;48.906;9.140;2023-03-01T01:18:03;994.17;;;7.83;38.10
45071;BME280;30836;48.906;9.140;2023-03-01T01:19:03;994.13;;;7.81;38.06
45071;BME280;30836;48.906;9.140;2023-03-01T01:20:04;994.13;;;7.80;38.03
45071;BME280;30836;48.906;9.140;2023-03-01T01:21:09;994.15;;;7.82;38.04
45071;BME280;30836;48.906;9.140;2023-03-01T01:22:11;994.13;;;7.85;37.91
45071;BME280;30836;48.906;9.140;2023-03-01T01:23:12;994.13;;;7.86;37.89
45071;BME280;30836;48.906;9.140;2023-03-01T01:24:12;994.13;;;7.85;37.93
45071;BME280;30836;48.906;9.140;2023-03-01T01:25:13;994.09;;;7.81;38.06
45071;BME280;30836;48.906;9.140;2023-03-01T01:26:15;994.11;;;7.74;38.27
45071;BME280;30836;48.906;9.140;2023-03-01T01:27:20;994.07;;;7.69;38.39
45071;BME280;30836;48.906;9.140;2023-03-01T01:28:21;994.07;;;7.67;38.33
45071;BME280;30836;48.906;9.140;2023-03-01T01:29:21;994.05;;;7.65;38.29
45071;BME280;30836;48.906;9.140;2023-03-01T01:30:22;994.05;;;7.62;38.48
45071;BME280;30836;48.906;9.140;2023-03-01T01:31:22;994.03;;;7.59;38.45
45071;BME280;30836;48.906;9.140;2023-03-01T01:32:24;993.99;;;7.61;38.35
45071;BME280;30836;48.906;9.140;2023-03-01T01:33:24;993.99;;;7.69;38.09
45071;BME280;30836;48.906;9.140;2023-03-01T01:34:25;993.97;;;7.77;37.93
45071;BME280;30836;48.906;9.140;2023-03-01T01:35:25;993.97;;;7.82;37.83
45071;BME280;30836;48.906;9.140;2023-03-01T01:36:26;993.97;;;7.83;37.79
45071;BME280;30836;48.906;9.140;2023-03-01T01:37:27;993.95;;;7.81;37.86
45071;BME280;30836;48.906;9.140;2023-03-01T01:38:27;993.93;;;7.78;37.95
45071;BME280;30836;48.906;9.140;2023-03-01T01:39:28;993.93;;;7.74;38.06
45071;BME280;30836;48.906;9.140;2023-03-01T01:40:29;993.91;;;7.69;38.18
45071;BME280;30836;48.906;9.140;2023-03-01T01:41:29;993.87;;;7.65;38.19
45071;BME280;30836;48.906;9.140;2023-03-01T01:42:30;993.87;;;7.61;38.17
45071;BME280;30836;48.906;9.140;2023-03-01T01:43:35;993.87;;;7.59;38.19
45071;BME280;30836;48.906;9.140;2023-03-01T01:44:38;993.85;;;7.57;38.20
45071;BME280;30836;48.906;9.140;2023-03-01T01:45:40;993.85;;;7.57;38.15
45071;BME280;30836;48.906;9.140;2023-03-01T01:46:48;993.83;;;7.57;38.23
45071;BME280;30836;48.906;9.140;2023-03-01T01:47:51;993.81;;;7.58;38.24
45071;BME280;30836;48.906;9.140;2023-03-01T01:48:56;993.81;;;7.65;38.14
45071;BME280;30836;48.906;9.140;2023-03-01T01:49:59;993.81;;;7.76;37.73
45071;BME280;30836;48.906;9.140;2023-03-01T01:51:01;993.79;;;7.91;37.36
45071;BME280;30836;48.906;9.140;2023-03-01T01:52:10;993.78;;;8.06;37.11
45071;BME280;30836;48.906;9.140;2023-03-01T01:53:15;993.78;;;8.18;36.73
45071;BME280;30836;48.906;9.140;2023-03-01T01:54:23;993.79;;;8.29;36.63
45071;BME280;30836;48.906;9.140;2023-03-01T01:55:30;993.78;;;8.39;36.49
45071;BME280;30836;48.906;9.140;2023-03-01T01:56:31;993.79;;;8.47;36.37
45071;BME280;30836;48.906;9.140;2023-03-01T01:57:32;993.79;;;8.52;36.28
45071;BME280;30836;48.906;9.140;2023-03-01T01:58:38;993.79;;;8.56;36.25
45071;BME280;30836;48.906;9.140;2023-03-01T01:59:42;993.78;;;8.59;36.24
45071;BME280;30836;48.906;9.140;2023-03-01T02:00:45;993.78;;;8.61;36.16
45071;BME280;30836;48.906;9.140;2023-03-01T02:01:47;993.78;;;8.64;36.16
45071;BME280;30836;48.906;9.140;2023-03-01T02:02:48;993.74;;;8.65;36.22
45071;BME280;30836;48.906;9.140;2023-03-01T02:03:51;993.72;;;8.65;36.33
45071;BME280;30836;48.906;9.140;2023-03-01T02:04:53;993.72;;;8.64;36.41
45071;BME280;30836;48.906;9.140;2023-03-01T02:06:03;993.68;;;8.64;36.33
45071;BME280;30836;48.906;9.140;2023-03-01T02:07:13;993.68;;;8.65;36.28
45071;BME280;30836;48.906;9.140;2023-03-01T02:08:16;993.62;;;8.63;36.46
45071;BME280;30836;48.906;9.140;2023-03-01T02:09:19;993.66;;;8.61;36.40
45071;BME280;30836;48.906;9.140;2023-03-01T02:10:21;993.62;;;8.62;36.37
45071;BME280;30836;48.906;9.140;2023-03-01T02:11:23;993.62;;;8.62;36.31
45071;BME280;30836;48.906;9.140;2023-03-01T02:12:24;993.56;;;8.58;36.42
45071;BME280;30836;48.906;9.140;2023-03-01T02:13:26;993.54;;;8.44;36.81
45071;BME280;30836;48.906;9.140;2023-03-01T02:14:27;993.54;;;8.25;37.13
45071;BME280;30836;48.906;9.140;2023-03-01T02:15:31;993.54;;;8.09;37.40
45071;BME280;30836;48.906;9.140;2023-03-01T02:16:33;993.50;;;7.96;37.64
45071;BME280;30836;48.906;9.140;2023-03-01T02:17:34;993.50;;;7.83;37.96
45071;BME280;30836;48.906;9.140;2023-03-01T02:18:35;993.46;;;7.69;38.11
45071;BME280;30836;48.906;9.140;2023-03-01T02:20:51;993.44;;;7.50;38.47
45071;BME280;30836;48.906;9.140;2023-03-01T02:23:10;993.42;;;7.41;38.64
45071;BME280;30836;48.906;9.140;2023-03-01T02:24:15;993.44;;;7.35;38.69
45071;BME280;30836;48.906;9.140;2023-03-01T02:28:53;993.42;;;7.25;38.88
45071;BME280;30836;48.906;9.140;2023-03-01T02:29:54;993.44;;;7.28;38.78
45071;BME280;30836;48.906;9.140;2023-03-01T02:30:54;993.40;;;7.31;38.71
45071;BME280;30836;48.906;9.140;2023-03-01T02:31:55;993.38;;;7.33;38.69
45071;BME280;30836;48.906;9.140;2023-03-01T02:32:58;993.38;;;7.34;38.69
45071;BME280;30836;48.906;9.140;2023-03-01T02:34:02;993.34;;;7.35;38.75
45071;BME280;30836;48.906;9.140;2023-03-01T02:35:04;993.36;;;7.32;38.87
45071;BME280;30836;48.906;9.140;2023-03-01T02:36:06;993.32;;;7.27;38.96
45071;BME280;30836;48.906;9.140;2023-03-01T02:37:13;993.28;;;7.25;39.00
45071;BME280;30836;48.906;9.140;2023-03-01T02:38:14;993.28;;;7.23;39.05
45071;BME280;30836;48.906;9.140;2023-03-01T02:39:16;993.30;;;7.19;39.14
45071;BME280;30836;48.906;9.140;2023-03-01T02:40:22;993.28;;;7.21;39.11
45071;BME280;30836;48.906;9.140;2023-03-01T02:41:23;993.27;;;7.32;38.83
45071;BME280;30836;48.906;9.140;2023-03-01T02:42:28;993.27;;;7.48;38.50
45071;BME280;30836;48.906;9.140;2023-03-01T02:43:32;993.27;;;7.66;38.17
45071;BME280;30836;48.906;9.140;2023-03-01T02:44:34;993.27;;;7.82;37.96
45071;BME280;30836;48.906;9.140;2023-03-01T02:45:34;993.27;;;7.95;37.63
45071;BME280;30836;48.906;9.140;2023-03-01T02:46:41;993.27;;;8.07;37.48
45071;BME280;30836;48.906;9.140;2023-03-01T02:47:45;993.23;;;8.14;37.35
45071;BME280;30836;48.906;9.140;2023-03-01T02:48:47;993.27;;;8.19;37.33
45071;BME280;30836;48.906;9.140;2023-03-01T02:49:53;993.23;;;8.20;37.36
45071;BME280;30836;48.906;9.140;2023-03-01T02:51:01;993.21;;;8.19;37.33
45071;BME280;30836;48.906;9.140;2023-03-01T02:55:39;993.17;;;8.27;37.08
45071;BME280;30836;48.906;9.140;2023-03-01T02:56:40;993.15;;;8.30;37.10
45071;BME280;30836;48.906;9.140;2023-03-01T02:57:42;993.13;;;8.33;37.08
45071;BME280;30836;48.906;9.140;2023-03-01T02:58:45;993.17;;;8.34;37.06
45071;BME280;30836;48.906;9.140;2023-03-01T02:59:45;993.17;;;8.36;37.02
45071;BME280;30836;48.906;9.140;2023-03-01T03:00:46;993.15;;;8.38;37.02
45071;BME280;30836;48.906;9.140;2023-03-01T03:01:46;993.17;;;8.37;37.02
45071;BME280;30836;48.906;9.140;2023-03-01T03:02:48;993.19;;;8.37;37.06
45071;BME280;30836;48.906;9.140;2023-03-01T03:03:50;993.15;;;8.37;37.03
45071;BME280;30836;48.906;9.140;2023-03-01T03:04:50;993.15;;;8.38;37.01
45071;BME280;30836;48.906;9.140;2023-03-01T03:05:50;993.13;;;8.40;36.93
45071;BME280;30836;48.906;9.140;2023-03-01T03:06:51;993.13;;;8.42;36.94
45071;BME280;30836;48.906;9.140;2023-03-01T03:07:51;993.13;;;8.42;36.95
45071;BME280;30836;48.906;9.140;2023-03-01T03:08:52;993.09;;;8.37;37.10
45071;BME280;30836;48.906;9.140;2023-03-01T03:09:52;993.09;;;8.29;37.10
45071;BME280;30836;48.906;9.140;2023-03-01T03:10:52;993.09;;;8.26;37.09
45071;BME280;30836;48.906;9.140;2023-03-01T03:11:53;993.09;;;8.24;37.09
45071;BME280;30836;48.906;9.140;2023-03-01T03:12:55;993.07;;;8.23;37.09
45071;BME280;30836;48.906;9.140;2023-03-01T03:13:57;993.07;;;8.20;37.16
45071;BME280;30836;48.906;9.140;2023-03-01T03:14:58;993.07;;;8.15;37.27
45071;BME280;30836;48.906;9.140;2023-03-01T03:15:58;993.09;;;8.10;37.36
45071;BME280;30836;48.906;9.140;2023-03-01T03:16:58;993.03;;;8.07;37.41
45071;BME280;30836;48.906;9.140;2023-03-01T03:17:59;993.05;;;8.06;37.38
45071;BME280;30836;48.906;9.140;2023-03-01T03:18:59;993.03;;;8.06;37.37
45071;BME280;30836;48.906;9.140;2023-03-01T03:20:00;993.03;;;8.05;37.36
45071;BME280;30836;48.906;9.140;2023-03-01T03:21:00;993.03;;;8.03;37.36
45071;BME280;30836;48.906;9.140;2023-03-01T03:22:01;993.01;;;8.00;37.54
45071;BME280;30836;48.906;9.140;2023-03-01T03:23:01;992.99;;;7.94;37.72
45071;BME280;30836;48.906;9.140;2023-03-01T03:24:02;993.01;;;7.90;37.74
45071;BME280;30836;48.906;9.140;2023-03-01T03:25:03;992.99;;;7.89;37.79
45071;BME280;30836;48.906;9.140;2023-03-01T03:26:04;992.97;;;7.89;37.80
45071;BME280;30836;48.906;9.140;2023-03-01T03:27:06;992.99;;;7.91;37.74
45071;BME280;30836;48.906;9.140;2023-03-01T03:28:08;992.99;;;7.91;37.83
45071;BME280;30836;48.906;9.140;2023-03-01T03:29:08;992.97;;;7.89;37.97
45071;BME280;30836;48.906;9.140;2023-03-01T03:30:09;992.97;;;7.89;38.01
45071;BME280;30836;48.906;9.140;2023-03-01T03:31:12;992.95;;;7.92;38.05
45071;BME280;30836;48.906;9.140;2023-03-01T03:32:13;992.95;;;7.98;37.97
45071;BME280;30836;48.906;9.140;2023-03-01T03:33:13;993.01;;;8.05;37.87
45071;BME280;30836;48.906;9.140;2023-03-01T03:34:14;992.99;;;8.13;37.83
45071;BME280;30836;48.906;9.140;2023-03-01T03:35:14;993.01;;;8.20;37.76
45071;BME280;30836;48.906;9.140;2023-03-01T03:36:16;993.01;;;8.27;37.64
45071;BME280;30836;48.906;9.140;2023-03-01T03:37:17;992.99;;;8.34;37.55
45071;BME280;30836;48.906;9.140;2023-03-01T03:38:19;992.99;;;8.40;37.43
45071;BME280;30836;48.906;9.140;2023-03-01T03:39:20;992.95;;;8.45;37.33
45071;BME280;30836;48.906;9.140;2023-03-01T03:40:20;992.99;;;8.49;37.25
45071;BME280;30836;48.906;9.140;2023-03-01T03:41:21;992.97;;;8.49;37.22
45071;BME280;30836;48.906;9.140;2023-03-01T03:42:21;992.99;;;8.49;37.25
45071;BME280;30836;48.906;9.140;2023-03-01T03:43:22;992.95;;;8.51;37.22
45071;BME280;30836;48.906;9.140;2023-03-01T03:44:23;992.95;;;8.53;37.23
45071;BME280;30836;48.906;9.140;2023-03-01T03:45:23;992.93;;;8.54;37.26
45071;BME280;30836;48.906;9.140;2023-03-01T03:46:24;992.91;;;8.54;37.22
45071;BME280;30836;48.906;9.140;2023-03-01T03:47:24;992.91;;;8.56;37.17
45071;BME280;30836;48.906;9.140;2023-03-01T03:48:25;992.89;;;8.58;37.13
45071;BME280;30836;48.906;9.140;2023-03-01T03:49:26;992.93;;;8.61;37.07
45071;BME280;30836;48.906;9.140;2023-03-01T03:50:27;992.91;;;8.64;37.02
45071;BME280;30836;48.906;9.140;2023-03-01T03:51:28;992.91;;;8.67;36.95
45071;BME280;30836;48.906;9.140;2023-03-01T03:52:28;992.93;;;8.72;36.87
45071;BME280;30836;48.906;9.140;2023-03-01T03:53:29;992.89;;;8.75;36.79
45071;BME280;30836;48.906;9.140;2023-03-01T03:54:29;992.89;;;8.73;36.89
45071;BME280;30836;48.906;9.140;2023-03-01T03:55:30;992.87;;;8.63;37.19
45071;BME280;30836;48.906;9.140;2023-03-01T03:56:30;992.85;;;8.51;37.52
45071;BME280;30836;48.906;9.140;2023-03-01T03:57:31;992.83;;;8.38;37.83
45071;BME280;30836;48.906;9.140;2023-03-01T03:58:31;992.83;;;8.27;38.02
45071;BME280;30836;48.906;9.140;2023-03-01T03:59:32;992.79;;;8.21;38.12
45071;BME280;30836;48.906;9.140;2023-03-01T04:00:33;992.79;;;8.15;38.19
45071;BME280;30836;48.906;9.140;2023-03-01T04:01:35;992.75;;;8.10;38.30
45071;BME280;30836;48.906;9.140;2023-03-01T04:02:35;992.75;;;8.06;38.43
45071;BME280;30836;48.906;9.140;2023-03-01T04:03:36;992.77;;;8.03;38.48
45071;BME280;30836;48.906;9.140;2023-03-01T04:04:36;992.73;;;8.02;38.53
45071;BME280;30836;48.906;9.140;2023-03-01T04:05:37;992.73;;;8.01;38.54
45071;BME280;30836;48.906;9.140;2023-03-01T04:06:39;992.72;;;8.01;38.55
45071;BME280;30836;48.906;9.140;2023-03-01T04:07:40;992.68;;;8.01;38.57
45071;BME280;30836;48.906;9.140;2023-03-01T04:08:41;992.68;;;8.00;38.64
45071;BME280;30836;48.906;9.140;2023-03-01T04:09:42;992.68;;;7.99;38.65
45071;BME280;30836;48.906;9.140;2023-03-01T04:10:44;992.68;;;7.99;38.58
45071;BME280;30836;48.906;9.140;2023-03-01T04:11:46;992.68;;;7.99;38.60
45071;BME280;30836;48.906;9.140;2023-03-01T04:12:47;992.66;;;7.99;38.72
45071;BME280;30836;48.906;9.140;2023-03-01T04:13:47;992.66;;;7.97;38.82
45071;BME280;30836;48.906;9.140;2023-03-01T04:14:48;992.64;;;7.95;38.93
45071;BME280;30836;48.906;9.140;2023-03-01T04:15:49;992.66;;;7.92;39.13
45071;BME280;30836;48.906;9.140;2023-03-01T04:16:54;992.64;;;7.89;39.18
45071;BME280;30836;48.906;9.140;2023-03-01T04:17:54;992.64;;;7.86;39.35
45071;BME280;30836;48.906;9.140;2023-03-01T04:18:55;992.66;;;7.83;39.46
45071;BME280;30836;48.906;9.140;2023-03-01T04:19:55;992.66;;;7.82;39.55
45071;BME280;30836;48.906;9.140;2023-03-01T04:20:56;992.64;;;7.81;39.62
45071;BME280;30836;48.906;9.140;2023-03-01T04:21:56;992.64;;;7.80;39.69
45071;BME280;30836;48.906;9.140;2023-03-01T04:23:16;992.66;;;7.79;39.66
45071;BME280;30836;48.906;9.140;2023-03-01T04:24:10;992.68;;;7.81;39.61
45071;BME280;30836;48.906;9.140;2023-03-01T04:25:11;992.66;;;7.85;39.47
45071;BME280;30836;48.906;9.140;2023-03-01T04:26:11;992.64;;;7.90;39.40
45071;BME280;30836;48.906;9.140;2023-03-01T04:27:12;992.68;;;7.94;39.35
45071;BME280;30836;48.906;9.140;2023-03-01T04:28:12;992.66;;;7.96;39.29
45071;BME280;30836;48.906;9.140;2023-03-01T04:29:13;992.62;;;7.95;39.33
45071;BME280;30836;48.906;9.140;2023-03-01T04:30:13;992.64;;;7.94;39.37
45071;BME280;30836;48.906;9.140;2023-03-01T04:30:24;992.66;;;7.91;39.37
45071;BME280;30836;48.906;9.140;2023-03-01T04:31:24;992.66;;;7.93;39.36
45071;BME280;30836;48.906;9.140;2023-03-01T04:32:25;992.64;;;7.97;39.27
45071;BME280;30836;48.906;9.140;2023-03-01T04:33:25;992.62;;;7.98;39.29
45071;BME280;30836;48.906;9.140;2023-03-01T04:34:26;992.60;;;7.97;39.31
45071;BME280;30836;48.906;9.140;2023-03-01T04:35:26;992.58;;;7.96;39.36
45071;BME280;30836;48.906;9.140;2023-03-01T04:36:27;992.60;;;7.94;39.42
45071;BME280;30836;48.906;9.140;2023-03-01T04:36:38;992.60;;;7.90;39.42
45071;BME280;30836;48.906;9.140;2023-03-01T04:37:38;992.64;;;7.92;39.39
45071;BME280;30836;48.906;9.140;2023-03-01T04:38:39;992.62;;;7.97;39.34
45071;BME280;30836;48.906;9.140;2023-03-01T04:39:40;992.60;;;8.01;39.25
45071;BME280;30836;48.906;9.140;2023-03-01T04:40:40;992.60;;;8.04;39.19
45071;BME280;30836;48.906;9.140;2023-03-01T04:41:41;992.60;;;8.05;39.24
45071;BME280;30836;48.906;9.140;2023-03-01T04:42:42;992.62;;;8.06;39.28
45071;BME280;30836;48.906;9.140;2023-03-01T04:43:43;992.64;;;8.07;39.27
45071;BME280;30836;48.906;9.140;2023-03-01T04:44:44;992.66;;;8.10;39.20
45071;BME280;30836;48.906;9.140;2023-03-01T04:45:45;992.66;;;8.13;39.19
45071;BME280;30836;48.906;9.140;2023-03-01T04:46:45;992.68;;;8.15;39.28
45071;BME280;30836;48.906;9.140;2023-03-01T04:47:49;992.66;;;8.16;39.37
45071;BME280;30836;48.906;9.140;2023-03-01T04:48:49;992.68;;;8.17;39.29
45071;BME280;30836;48.906;9.140;2023-03-01T04:49:50;992.70;;;8.16;39.39
45071;BME280;30836;48.906;9.140;2023-03-01T04:50:50;992.68;;;8.15;39.44
45071;BME280;30836;48.906;9.140;2023-03-01T04:51:50;992.70;;;8.12;39.46
45071;BME280;30836;48.906;9.140;2023-03-01T04:52:51;992.68;;;8.10;39.50
45071;BME280;30836;48.906;9.140;2023-03-01T04:53:52;992.66;;;8.08;39.55
45071;BME280;30836;48.906;9.140;2023-03-01T04:54:53;992.66;;;8.06;39.47
45071;BME280;30836;48.906;9.140;2023-03-01T04:55:54;992.68;;;8.05;39.48
45071;BME280;30836;48.906;9.140;2023-03-01T04:56:55;992.70;;;8.06;39.39
45071;BME280;30836;48.906;9.140;2023-03-01T04:57:56;992.68;;;8.06;39.33
45071;BME280;30836;48.906;9.140;2023-03-01T04:58:56;992.70;;;8.05;39.32
45071;BME280;30836;48.906;9.140;2023-03-01T04:59:57;992.68;;;8.04;39.32
45071;BME280;30836;48.906;9.140;2023-03-01T05:00:58;992.68;;;8.03;39.35
45071;BME280;30836;48.906;9.140;2023-03-01T05:01:58;992.68;;;8.01;39.34
45071;BME280;30836;48.906;9.140;2023-03-01T05:03:00;992.68;;;8.00;39.38
45071;BME280;30836;48.906;9.140;2023-03-01T05:04:01;992.68;;;7.99;39.34
45071;BME280;30836;48.906;9.140;2023-03-01T05:05:01;992.66;;;7.99;39.30
45071;BME280;30836;48.906;9.140;2023-03-01T05:06:02;992.68;;;8.00;39.25
45071;BME280;30836;48.906;9.140;2023-03-01T05:07:02;992.68;;;8.00;39.28
45071;BME280;30836;48.906;9.140;2023-03-01T05:08:04;992.72;;;7.99;39.35
45071;BME280;30836;48.906;9.140;2023-03-01T05:09:06;992.70;;;7.93;39.28
45071;BME280;30836;48.906;9.140;2023-03-01T05:10:07;992.68;;;7.77;39.96
45071;BME280;30836;48.906;9.140;2023-03-01T05:11:09;992.70;;;7.60;39.94
45071;BME280;30836;48.906;9.140;2023-03-01T05:12:10;992.70;;;7.56;40.01
45071;BME280;30836;48.906;9.140;2023-03-01T05:13:10;992.70;;;7.57;40.07
45071;BME280;30836;48.906;9.140;2023-03-01T05:14:11;992.70;;;7.59;39.98
45071;BME280;30836;48.906;9.140;2023-03-01T05:15:11;992.70;;;7.59;39.94
45071;BME280;30836;48.906;9.140;2023-03-01T05:16:12;992.66;;;7.59;39.95
45071;BME280;30836;48.906;9.140;2023-03-01T05:17:12;992.66;;;7.57;39.99
45071;BME280;30836;48.906;9.140;2023-03-01T05:18:13;992.62;;;7.53;40.06
45071;BME280;30836;48.906;9.140;2023-03-01T05:19:13;992.60;;;7.45;40.16
45071;BME280;30836;48.906;9.140;2023-03-01T05:20:14;992.60;;;7.38;40.39
45071;BME280;30836;48.906;9.140;2023-03-01T05:21:16;992.62;;;7.35;40.47
45071;BME280;30836;48.906;9.140;2023-03-01T05:22:16;992.62;;;7.35;40.49
45071;BME280;30836;48.906;9.140;2023-03-01T05:23:17;992.62;;;7.35;40.52
45071;BME280;30836;48.906;9.140;2023-03-01T05:24:18;992.62;;;7.34;40.53
45071;BME280;30836;48.906;9.140;2023-03-01T05:25:18;992.62;;;7.34;40.55
45071;BME280;30836;48.906;9.140;2023-03-01T05:26:19;992.62;;;7.34;40.48
45071;BME280;30836;48.906;9.140;2023-03-01T05:27:20;992.62;;;7.35;40.41
45071;BME280;30836;48.906;9.140;2023-03-01T05:28:20;992.60;;;7.37;40.32
45071;BME280;30836;48.906;9.140;2023-03-01T05:29:22;992.56;;;7.39;40.35
45071;BME280;30836;48.906;9.140;2023-03-01T05:30:23;992.56;;;7.39;40.38
45071;BME280;30836;48.906;9.140;2023-03-01T05:31:24;992.56;;;7.37;40.41
45071;BME280;30836;48.906;9.140;2023-03-01T05:32:25;992.54;;;7.37;40.41
45071;BME280;30836;48.906;9.140;2023-03-01T05:33:26;992.60;;;7.47;40.13
45071;BME280;30836;48.906;9.140;2023-03-01T05:34:28;992.60;;;7.59;39.80
45071;BME280;30836;48.906;9.140;2023-03-01T05:35:32;992.60;;;7.60;39.80
45071;BME280;30836;48.906;9.140;2023-03-01T05:36:32;992.62;;;7.46;40.14
45071;BME280;30836;48.906;9.140;2023-03-01T05:37:33;992.60;;;7.25;40.69
45071;BME280;30836;48.906;9.140;2023-03-01T05:38:33;992.60;;;7.06;40.91
45071;BME280;30836;48.906;9.140;2023-03-01T05:39:34;992.60;;;6.86;41.42
45071;BME280;30836;48.906;9.140;2023-03-01T05:40:35;992.60;;;6.68;41.72
45071;BME280;30836;48.906;9.140;2023-03-01T05:41:35;992.62;;;6.51;41.93
45071;BME280;30836;48.906;9.140;2023-03-01T05:42:36;992.62;;;6.41;42.12
45071;BME280;30836;48.906;9.140;2023-03-01T05:43:36;992.62;;;6.40;41.92
45071;BME280;30836;48.906;9.140;2023-03-01T05:44:36;992.62;;;6.42;41.89
45071;BME280;30836;48.906;9.140;2023-03-01T05:45:38;992.62;;;6.47;41.72
45071;BME280;30836;48.906;9.140;2023-03-01T05:46:38;992.62;;;6.59;41.45
45071;BME280;30836;48.906;9.140;2023-03-01T05:47:42;992.58;;;6.75;41.13
45071;BME280;30836;48.906;9.140;2023-03-01T05:48:44;992.62;;;6.91;40.78